Time;durP1;ratioP1;P1;durP2;ratioP2;P2;SDS_P1;SDS_P2;PMS_P1;PMS_P2;Temp;Humidity;BMP_temperature;BMP_pressure;BME280_temperature;BME280_humidity;BME280_pressure;Samples;Min_cycle;Max_cycle;Signal;HPM_P1;HPM_P2
2021/09/21 02:35:48;;;;;;;5.47;5.00;;;;;;;11.99;72.84;100120.59;4991550;28;20228;-79
2021/09/21 02:38:29;;;;;;;5.23;4.73;;;;;;;11.98;73.42;100121.66;4989881;28;20232;-79
2021/09/21 02:41:05;;;;;;;5.87;5.27;;;;;;;11.99;73.34;100126.78;4994908;28;20232;-79
2021/09/21 02:43:34;;;;;;;6.10;5.50;;;;;;;12.00;73.93;100127.59;5018170;23;20536;-79
2021/09/21 02:46:12;;;;;;;5.80;5.30;;;;;;;11.97;73.96;100120.00;5060382;22;20260;-79
2021/09/21 02:48:43;;;;;;;6.30;5.60;;;;;;;11.96;74.41;100129.06;5051336;28;20260;-79
2021/09/21 02:51:18;;;;;;;6.30;5.77;;;;;;;11.97;74.45;100131.56;5048217;22;20182;-79
2021/09/21 02:53:59;;;;;;;6.50;5.63;;;;;;;11.94;74.54;100123.94;5093077;28;20208;-80
2021/09/21 02:56:28;;;;;;;6.27;5.67;;;;;;;11.86;74.22;100118.81;5092365;28;20213;-79
2021/09/21 02:59:06;;;;;;;6.33;5.73;;;;;;;11.87;74.04;100125.84;5092729;28;20185;-80
2021/09/21 03:01:33;;;;;;;6.13;5.53;;;;;;;11.94;73.31;100136.53;5089308;28;20240;-79
2021/09/21 03:04:53;;;;;;;6.03;5.30;;;;;;;11.96;73.82;100140.66;5088218;28;20315;-79
2021/09/21 03:07:05;;;;;;;5.90;5.40;;;;;;;11.90;74.19;100152.25;5081775;28;20225;-80
2021/09/21 03:09:52;;;;;;;6.07;5.43;;;;;;;11.92;74.07;100163.59;5089877;28;20248;-79
2021/09/21 03:12:32;;;;;;;6.30;5.73;;;;;;;11.92;74.55;100160.91;5089380;28;20630;-80
2021/09/21 03:17:58;;;;;;;6.87;6.20;;;;;;;11.84;73.35;100147.75;5093889;22;20532;-79
2021/09/21 03:20:46;;;;;;;6.53;5.93;;;;;;;11.87;73.07;100147.31;5092690;22;20220;-79
2021/09/21 03:23:18;;;;;;;6.97;5.80;;;;;;;11.83;72.95;100144.25;5090557;28;20228;-79
2021/09/21 03:25:47;;;;;;;6.33;5.73;;;;;;;11.86;72.81;100138.44;5090948;28;20236;-79
2021/09/21 03:28:13;;;;;;;6.90;6.30;;;;;;;11.84;73.40;100153.13;5092155;28;20213;-80
2021/09/21 03:30:44;;;;;;;6.67;5.97;;;;;;;11.81;73.55;100156.22;5097580;22;20284;-79
2021/09/21 03:33:15;;;;;;;6.97;6.30;;;;;;;11.88;73.24;100162.38;5091465;28;20236;-79
2021/09/21 03:35:45;;;;;;;6.80;6.10;;;;;;;11.83;72.62;100154.16;5102746;22;20228;-79
2021/09/21 03:38:15;;;;;;;7.00;6.30;;;;;;;11.83;72.02;100159.53;5074534;28;20601;-79
2021/09/21 03:40:43;;;;;;;6.87;6.27;;;;;;;11.77;72.19;100163.06;5106087;22;20221;-80
2021/09/21 03:43:16;;;;;;;6.80;6.10;;;;;;;11.69;72.41;100155.22;5095523;22;20215;-79
2021/09/21 03:46:29;;;;;;;6.47;5.77;;;;;;;11.76;72.79;100170.28;5095576;22;20229;-80
2021/09/21 03:49:02;;;;;;;7.90;6.30;;;;;;;11.79;72.22;100163.69;5096397;22;20220;-80
2021/09/21 03:51:30;;;;;;;6.67;6.07;;;;;;;11.75;72.63;100179.41;5094691;22;20229;-79
2021/09/21 03:54:04;;;;;;;6.80;6.20;;;;;;;11.69;73.30;100172.16;5080121;23;20224;-80
2021/09/21 03:56:36;;;;;;;7.33;6.73;;;;;;;11.67;73.25;100170.72;5045531;28;20230;-79
2021/09/21 03:59:11;;;;;;;6.90;6.20;;;;;;;11.64;73.58;100171.16;5078822;23;20259;-79
2021/09/21 04:01:40;;;;;;;6.80;6.20;;;;;;;11.69;74.08;100174.84;5051813;23;20234;-79
2021/09/21 04:04:11;;;;;;;7.03;6.43;;;;;;;11.69;74.32;100174.00;5031886;28;20233;-79
2021/09/21 04:06:44;;;;;;;6.90;6.20;;;;;;;11.68;74.19;100175.88;5031651;28;20179;-79
2021/09/21 04:09:19;;;;;;;6.40;5.80;;;;;;;11.66;74.45;100169.09;5040896;28;20236;-79
2021/09/21 04:11:46;;;;;;;7.30;6.60;;;;;;;11.66;74.13;100174.44;5042582;28;20230;-79
2021/09/21 04:14:32;;;;;;;6.60;6.00;;;;;;;11.64;74.56;100180.03;5094150;23;20226;-80
2021/09/21 04:17:11;;;;;;;6.97;6.20;;;;;;;11.70;74.49;100189.09;5098513;22;20232;-79
2021/09/21 04:19:49;;;;;;;6.60;6.10;;;;;;;11.70;74.89;100197.13;5039749;28;20196;-79
2021/09/21 04:22:21;;;;;;;6.70;6.10;;;;;;;11.70;74.96;100200.66;5086953;22;20228;-79
2021/09/21 04:24:56;;;;;;;9.03;6.53;;;;;;;11.69;75.13;100198.16;5096119;22;20222;-79
2021/09/21 04:27:25;;;;;;;6.43;5.80;;;;;;;11.64;75.04;100190.75;5065806;22;20271;-79
2021/09/21 04:30:06;;;;;;;7.07;6.47;;;;;;;11.69;75.00;100196.31;5049674;28;20209;-79
2021/09/21 04:32:48;;;;;;;6.97;5.83;;;;;;;11.70;75.45;100197.13;5090114;22;20640;-79
2021/09/21 04:35:26;;;;;;;9.20;6.33;;;;;;;11.72;75.13;100197.72;5067457;22;20217;-79
2021/09/21 04:37:53;;;;;;;7.03;6.37;;;;;;;11.68;75.29;100196.50;5053199;28;20236;-79
2021/09/21 04:40:34;;;;;;;6.67;6.17;;;;;;;11.72;75.24;100201.28;5080576;22;20325;-79
2021/09/21 04:43:08;;;;;;;7.73;5.97;;;;;;;11.71;75.73;100204.16;5089966;28;20219;-79
2021/09/21 04:45:40;;;;;;;6.57;5.97;;;;;;;11.61;75.86;100195.72;5088741;28;20228;-79
2021/09/21 04:48:21;;;;;;;7.00;6.17;;;;;;;11.72;75.98;100208.47;5087966;28;20180;-79
2021/09/21 04:50:48;;;;;;;7.73;6.30;;;;;;;11.75;75.79;100208.94;5070338;22;20225;-79
2021/09/21 04:53:20;;;;;;;7.30;6.33;;;;;;;11.77;75.38;100204.16;5058958;22;20244;-79
2021/09/21 04:55:51;;;;;;;7.03;6.30;;;;;;;11.74;75.18;100201.06;5070273;28;20223;-79
2021/09/21 04:58:21;;;;;;;8.60;6.73;;;;;;;11.82;75.03;100206.19;5087313;28;20216;-79
2021/09/21 05:00:53;;;;;;;7.00;6.40;;;;;;;11.84;75.20;100212.19;5093141;22;20252;-79
2021/09/21 05:03:26;;;;;;;7.47;6.70;;;;;;;11.82;75.54;100200.81;5085977;28;20291;-80
2021/09/21 05:06:07;;;;;;;7.47;6.77;;;;;;;11.90;75.29;100219.38;5092944;22;20196;-79
2021/09/21 05:08:46;;;;;;;7.00;6.30;;;;;;;11.89;74.78;100215.06;5014523;28;20232;-79
2021/09/21 05:11:16;;;;;;;6.60;6.00;;;;;;;11.93;75.17;100220.81;5047040;28;20229;-79
2021/09/21 05:13:51;;;;;;;7.10;6.40;;;;;;;12.00;74.82;100221.59;5049043;28;20221;-79
2021/09/21 05:16:21;;;;;;;8.93;6.73;;;;;;;12.02;74.74;100223.03;5059672;22;20523;-79
2021/09/21 05:18:51;;;;;;;8.70;6.60;;;;;;;12.06;74.22;100221.56;5068733;28;20256;-79
2021/09/21 05:21:28;;;;;;;7.77;6.53;;;;;;;12.14;74.33;100225.84;5086567;28;20228;-79
2021/09/21 05:24:01;;;;;;;9.17;6.60;;;;;;;12.12;74.06;100217.22;5071198;28;20235;-80
2021/09/21 05:26:35;;;;;;;7.60;6.80;;;;;;;12.18;73.67;100233.28;5070057;28;20223;-79
2021/09/21 05:29:10;;;;;;;7.17;6.47;;;;;;;12.21;72.56;100230.16;5086811;28;20237;-79
2021/09/21 05:31:41;;;;;;;7.03;6.33;;;;;;;12.29;73.03;100234.44;5086944;28;20290;-79
2021/09/21 05:34:09;;;;;;;7.17;6.53;;;;;;;12.34;72.49;100240.84;5053129;28;20285;-79
2021/09/21 05:36:39;;;;;;;7.30;6.23;;;;;;;12.34;72.20;100230.09;5087563;28;20650;-79
2021/09/21 05:39:07;;;;;;;7.17;6.47;;;;;;;12.46;73.03;100240.94;5062097;22;20265;-79
2021/09/21 05:41:43;;;;;;;7.37;6.67;;;;;;;12.53;72.63;100240.91;5032867;28;20193;-80
2021/09/21 05:44:32;;;;;;;10.03;6.83;;;;;;;12.52;72.39;100237.41;5145016;22;20556;-79
2021/09/21 05:47:25;;;;;;;7.37;6.47;;;;;;;12.54;71.60;100240.72;5068843;28;20236;-80
2021/09/21 05:49:57;;;;;;;8.73;6.37;;;;;;;12.64;70.67;100251.81;5067298;28;20209;-79
2021/09/21 05:52:24;;;;;;;9.07;6.50;;;;;;;12.68;70.07;100247.63;5066850;28;20284;-79
2021/09/21 05:55:00;;;;;;;7.40;6.33;;;;;;;12.80;70.49;100253.94;5070321;22;20268;-79
2021/09/21 05:57:32;;;;;;;7.53;6.77;;;;;;;12.96;69.75;100266.03;5065745;28;20276;-80
2021/09/21 06:00:00;;;;;;;7.87;6.50;;;;;;;13.03;69.58;100265.97;5066215;28;20225;-79
2021/09/21 06:02:48;;;;;;;7.63;6.50;;;;;;;13.11;69.46;100271.13;5024629;28;20211;-79
2021/09/21 06:05:20;;;;;;;7.03;6.23;;;;;;;13.22;68.04;100273.06;5025589;28;20262;-80
2021/09/21 06:08:14;;;;;;;8.60;6.73;;;;;;;13.28;67.45;100291.03;5049547;22;20226;-79
2021/09/21 06:10:43;;;;;;;8.60;6.37;;;;;;;13.35;66.81;100299.03;5073846;22;20256;-79
2021/09/21 06:13:12;;;;;;;8.90;5.77;;;;;;;13.35;66.36;100290.94;5064812;28;20523;-80
2021/09/21 06:15:42;;;;;;;8.77;6.50;;;;;;;13.40;66.21;100301.88;5053304;28;20264;-79
2021/09/21 06:18:16;;;;;;;13.77;6.63;;;;;;;13.55;66.26;100313.13;5068472;28;20192;-80
2021/09/21 06:20:54;;;;;;;13.50;7.00;;;;;;;13.62;66.21;100314.69;5069625;28;20237;-80
2021/09/21 06:23:20;;;;;;;10.73;7.13;;;;;;;13.62;66.09;100317.38;5069670;28;20626;-80
2021/09/21 06:25:48;;;;;;;10.13;7.00;;;;;;;13.73;65.58;100323.09;5068233;28;20609;-80
2021/09/21 06:28:41;;;;;;;10.20;6.70;;;;;;;13.87;66.01;100333.50;5074192;28;20250;-81
2021/09/21 06:31:11;;;;;;;8.13;6.43;;;;;;;13.98;64.86;100321.16;5070945;28;20955;-87
2021/09/21 06:33:40;;;;;;;7.93;6.47;;;;;;;14.05;64.71;100322.72;5084750;22;20632;-80
2021/09/21 06:36:11;;;;;;;7.63;6.13;;;;;;;14.29;63.82;100344.41;5091006;28;20241;-81
2021/09/21 06:38:38;;;;;;;8.50;6.07;;;;;;;14.43;62.20;100322.47;5065818;28;20233;-86
2021/09/21 06:41:05;;;;;;;8.60;6.00;;;;;;;14.65;62.23;100338.19;5086454;28;20280;-87
2021/09/21 06:43:32;;;;;;;6.70;5.97;;;;;;;14.75;61.97;100325.75;5061258;28;20221;-80
2021/09/21 06:45:59;;;;;;;7.27;5.70;;;;;;;14.76;61.84;100332.81;5077230;28;20576;-88
2021/09/21 06:48:28;;;;;;;6.40;5.80;;;;;;;14.75;61.35;100338.44;5060305;28;20521;-81
2021/09/21 06:50:55;;;;;;;6.40;5.63;;;;;;;14.77;60.71;100336.34;5077313;28;20301;-85
2021/09/21 06:53:22;;;;;;;8.07;5.60;;;;;;;14.80;60.29;100350.19;5062419;28;20227;-85
2021/09/21 06:55:49;;;;;;;5.70;5.10;;;;;;;14.83;59.58;100352.44;5040673;28;20698;-85
2021/09/21 06:58:15;;;;;;;6.63;5.30;;;;;;;14.98;59.17;100358.22;5040430;28;20579;-86
2021/09/21 07:00:45;;;;;;;7.03;5.83;;;;;;;14.90;58.56;100357.72;5038346;28;20223;-84
2021/09/21 07:03:12;;;;;;;6.70;5.97;;;;;;;14.96;58.87;100360.34;5040047;28;20530;-82
2021/09/21 07:05:41;;;;;;;6.70;6.00;;;;;;;15.14;57.99;100362.13;5040844;28;20308;-88
2021/09/21 07:08:08;;;;;;;6.30;5.67;;;;;;;15.25;58.34;100363.22;5040055;28;20405;-85
2021/09/21 07:10:34;;;;;;;6.27;5.67;;;;;;;15.29;57.61;100359.00;5023903;28;20258;-86
2021/09/21 07:13:01;;;;;;;6.07;5.47;;;;;;;15.49;56.28;100354.06;5056947;28;20252;-88
2021/09/21 07:15:28;;;;;;;6.87;5.30;;;;;;;15.59;56.67;100361.63;5040304;28;20254;-89
2021/09/21 07:17:55;;;;;;;6.43;5.63;;;;;;;15.86;56.50;100358.19;5023441;28;20223;-87
2021/09/21 07:20:24;;;;;;;7.63;6.07;;;;;;;16.01;55.49;100373.09;5039642;28;20274;-83
2021/09/21 07:22:51;;;;;;;6.93;6.27;;;;;;;16.02;55.27;100372.88;5040135;28;20243;-80
2021/09/21 07:25:18;;;;;;;9.13;5.97;;;;;;;16.01;55.56;100381.22;5058554;28;20235;-86
2021/09/21 07:27:46;;;;;;;6.13;5.53;;;;;;;16.36;54.47;100371.19;5056578;28;20256;-86
2021/09/21 07:30:14;;;;;;;6.83;6.13;;;;;;;16.31;53.78;100384.59;5039436;28;20315;-86
2021/09/21 07:32:41;;;;;;;6.67;5.70;;;;;;;16.32;54.16;100375.41;5056399;28;20658;-89
2021/09/21 07:35:08;;;;;;;7.47;6.03;;;;;;;16.59;53.81;100373.00;5055628;28;20670;-89
2021/09/21 07:37:35;;;;;;;10.37;6.37;;;;;;;16.90;53.59;100391.47;5039407;28;20334;-91
2021/09/21 07:40:06;;;;;;;6.70;6.10;;;;;;;16.95;52.73;100394.25;5038478;28;20240;-90
2021/09/21 07:42:33;;;;;;;7.87;6.27;;;;;;;17.05;52.39;100399.03;5056303;28;20627;-93
2021/09/21 07:45:01;;;;;;;6.90;6.07;;;;;;;16.94;52.06;100386.38;5056132;28;20635;-81
2021/09/21 07:47:28;;;;;;;7.13;6.13;;;;;;;17.18;51.18;100398.72;5039375;28;20232;-91
2021/09/21 07:49:54;;;;;;;6.67;6.07;;;;;;;17.10;50.50;100374.78;5056001;28;20381;-91
2021/09/21 07:52:21;;;;;;;7.17;6.50;;;;;;;17.33;50.14;100395.47;5022718;28;20580;-86
2021/09/21 07:54:48;;;;;;;7.07;5.93;;;;;;;17.09;51.05;100387.47;5055737;28;20228;-89
2021/09/21 07:57:15;;;;;;;6.73;6.00;;;;;;;17.09;51.69;100384.78;5055092;28;20276;-91
2021/09/21 07:59:44;;;;;;;7.07;6.13;;;;;;;17.02;51.41;100391.41;5055965;28;20232;-91
2021/09/21 08:02:12;;;;;;;8.93;6.80;;;;;;;17.01;51.58;100398.72;5038853;28;20235;-88
2021/09/21 08:04:42;;;;;;;6.70;5.87;;;;;;;16.79;51.92;100405.06;5039876;28;20298;-89
2021/09/21 08:07:09;;;;;;;7.23;6.33;;;;;;;16.70;52.64;100397.31;5039327;28;20225;-88
2021/09/21 08:09:37;;;;;;;7.20;6.50;;;;;;;17.18;51.44;100396.03;5056234;28;20219;-85
2021/09/21 08:12:05;;;;;;;7.27;6.53;;;;;;;17.51;50.81;100400.66;5055324;28;20312;-86
2021/09/21 08:14:36;;;;;;;9.63;6.40;;;;;;;18.03;49.68;100403.91;5039163;28;20278;-87
2021/09/21 08:17:05;;;;;;;6.57;5.97;;;;;;;18.16;48.52;100400.84;5039708;28;20263;-91
2021/09/21 08:19:32;;;;;;;7.47;6.43;;;;;;;18.18;48.56;100395.19;5055114;28;20291;-85
2021/09/21 08:21:59;;;;;;;6.73;6.13;;;;;;;18.63;48.09;100405.81;5038972;28;20255;-89
2021/09/21 08:24:26;;;;;;;8.80;6.50;;;;;;;18.55;47.55;100395.41;5038149;28;20623;-87
2021/09/21 08:26:53;;;;;;;7.60;6.57;;;;;;;18.77;47.33;100398.91;5055818;28;20245;-90
2021/09/21 08:29:20;;;;;;;9.03;6.53;;;;;;;18.94;47.46;100407.00;5055372;28;20331;-88
2021/09/21 08:31:48;;;;;;;8.63;6.40;;;;;;;18.77;45.95;100391.59;5038780;28;20240;-89
2021/09/21 08:34:14;;;;;;;7.37;6.00;;;;;;;19.26;45.06;100388.84;5037862;28;20659;-87
2021/09/21 08:36:42;;;;;;;9.10;6.00;;;;;;;19.20;44.46;100390.69;5054592;28;20230;-90
2021/09/21 08:39:08;;;;;;;6.03;5.53;;;;;;;19.47;43.48;100401.53;5055037;28;20235;-84
2021/09/21 08:41:36;;;;;;;5.83;5.33;;;;;;;19.30;43.23;100407.09;5055039;28;20233;-83
2021/09/21 08:44:03;;;;;;;4.73;4.20;;;;;;;18.66;43.11;100408.88;5038037;28;20237;-87
2021/09/21 08:46:30;;;;;;;6.53;5.93;;;;;;;19.39;43.89;100412.03;5054139;28;20576;-91
2021/09/21 08:48:57;;;;;;;6.30;5.63;;;;;;;19.59;42.96;100417.69;5055261;28;20229;-89
2021/09/21 08:51:25;;;;;;;6.00;5.33;;;;;;;20.01;41.86;100410.38;5054679;28;20229;-86
2021/09/21 08:53:51;;;;;;;5.97;5.37;;;;;;;20.35;41.95;100410.03;5054869;28;20236;-86
2021/09/21 08:56:19;;;;;;;5.60;5.10;;;;;;;19.79;41.53;100410.47;5054570;28;20236;-84
2021/09/21 08:58:57;;;;;;;5.60;5.10;;;;;;;20.23;41.65;100421.09;5038572;28;20309;-81
2021/09/21 09:01:24;;;;;;;6.23;5.63;;;;;;;20.13;41.50;100418.31;5054931;28;20311;-89
2021/09/21 09:03:56;;;;;;;7.40;5.27;;;;;;;20.19;41.18;100401.78;5054644;28;20230;-89
2021/09/21 09:06:24;;;;;;;7.60;5.70;;;;;;;20.27;41.92;100410.50;5036622;28;20629;-87
2021/09/21 09:08:50;;;;;;;6.17;5.57;;;;;;;20.09;41.74;100418.03;5037365;28;20308;-80
2021/09/21 09:11:22;;;;;;;6.53;5.30;;;;;;;19.75;42.85;100425.69;5056054;28;20229;-91
2021/09/21 09:13:52;;;;;;;6.30;5.63;;;;;;;20.30;42.35;100424.44;5038567;28;20260;-89
2021/09/21 09:16:20;;;;;;;6.33;5.60;;;;;;;20.26;42.07;100433.34;5037891;28;20229;-83
2021/09/21 09:18:49;;;;;;;6.30;5.70;;;;;;;19.81;41.69;100436.59;5038745;28;20249;-86
2021/09/21 09:21:18;;;;;;;5.83;4.97;;;;;;;19.37;41.45;100431.31;5054509;28;20225;-85
2021/09/21 09:23:53;;;;;;;5.93;4.90;;;;;;;19.72;40.90;100437.09;5038523;28;20291;-84
2021/09/21 09:26:21;;;;;;;5.77;5.20;;;;;;;19.25;42.27;100434.19;5037766;28;20241;-88
2021/09/21 09:28:49;;;;;;;6.30;5.70;;;;;;;19.69;42.02;100434.88;5038347;28;20235;-87
2021/09/21 09:31:30;;;;;;;6.23;5.70;;;;;;;19.09;43.31;100418.81;5054720;28;20312;-89
2021/09/21 09:34:12;;;;;;;6.67;5.80;;;;;;;18.88;43.70;100425.13;5038137;28;20260;-89
2021/09/21 09:36:43;;;;;;;6.50;5.90;;;;;;;17.98;46.31;100423.66;5054368;28;20290;-93
2021/09/21 09:39:10;;;;;;;7.33;5.70;;;;;;;18.34;44.43;100424.97;5054324;28;20240;-92
2021/09/21 09:41:38;;;;;;;7.23;5.43;;;;;;;18.71;44.61;100424.38;5037559;28;20233;-91
2021/09/21 09:44:10;;;;;;;6.67;6.03;;;;;;;18.18;44.92;100425.00;5053479;28;20641;-87
2021/09/21 09:46:55;;;;;;;6.73;6.00;;;;;;;18.06;45.66;100433.25;5037699;28;20274;-92
2021/09/21 09:49:27;;;;;;;6.70;5.97;;;;;;;18.76;45.36;100438.81;5052881;28;20295;-87
2021/09/21 09:51:57;;;;;;;7.10;6.40;;;;;;;18.81;45.07;100427.19;5055049;28;20256;-91
2021/09/21 09:54:24;;;;;;;6.43;5.83;;;;;;;19.07;43.69;100436.44;5019955;28;20263;-90
2021/09/21 09:56:50;;;;;;;9.10;5.70;;;;;;;18.35;44.21;100432.03;5037550;28;20229;-89
2021/09/21 09:59:17;;;;;;;6.07;5.57;;;;;;;18.39;44.29;100429.63;5053748;28;20653;-91
2021/09/21 10:01:45;;;;;;;6.67;5.90;;;;;;;18.03;45.09;100431.03;5024078;28;20315;-92
2021/09/21 10:04:13;;;;;;;5.80;5.30;;;;;;;18.42;44.94;100431.84;5037190;28;20217;-90
2021/09/21 10:06:41;;;;;;;6.87;5.53;;;;;;;18.76;44.90;100433.38;5068873;28;20282;-86
2021/09/21 10:09:08;;;;;;;6.83;6.03;;;;;;;18.89;44.27;100434.91;5054664;28;20228;-86
2021/09/21 10:11:36;;;;;;;7.87;5.87;;;;;;;18.74;44.48;100426.59;5055714;28;20320;-91
2021/09/21 10:14:05;;;;;;;8.67;5.57;;;;;;;18.95;44.09;100436.59;5056266;28;20592;-91
2021/09/21 10:16:32;;;;;;;8.30;5.77;;;;;;;19.46;43.28;100418.09;5057027;28;20224;-92
2021/09/21 10:19:00;;;;;;;6.67;5.73;;;;;;;19.55;42.69;100417.34;5057357;28;20639;-88
2021/09/21 10:21:35;;;;;;;5.93;5.40;;;;;;;20.04;41.22;100417.19;5073225;28;20232;-87
2021/09/21 10:24:04;;;;;;;7.37;5.17;;;;;;;19.92;42.09;100413.84;5073460;28;20251;-87
2021/09/21 10:26:44;;;;;;;5.80;5.30;;;;;;;20.02;41.72;100424.75;5065846;28;20228;-85
2021/09/21 10:29:13;;;;;;;6.67;5.40;;;;;;;19.69;40.86;100415.84;5053678;28;20304;-90
2021/09/21 10:31:40;;;;;;;5.57;5.07;;;;;;;20.16;40.80;100407.72;5053251;28;20396;-92
2021/09/21 10:34:15;;;;;;;6.03;5.43;;;;;;;20.11;40.19;100412.34;5052723;28;20664;-92
2021/09/21 10:36:53;;;;;;;5.10;4.70;;;;;;;19.23;39.77;100417.31;5036950;28;20220;-90
2021/09/21 10:39:23;;;;;;;6.07;4.40;;;;;;;19.15;38.99;100411.53;5037009;28;20308;-85
2021/09/21 10:41:57;;;;;;;5.10;4.23;;;;;;;20.20;38.83;100397.94;5036898;28;20287;-91
2021/09/21 10:44:25;;;;;;;5.00;4.43;;;;;;;19.45;40.79;100409.16;5053973;28;20694;-86
2021/09/21 10:46:57;;;;;;;5.70;4.97;;;;;;;18.54;40.72;100404.63;5036858;28;20308;-83
2021/09/21 10:49:40;;;;;;;4.87;4.47;;;;;;;20.02;39.16;100408.44;5036916;28;20280;-87
2021/09/21 10:52:09;;;;;;;5.23;4.67;;;;;;;19.66;39.51;100418.28;5036576;28;20245;-92
2021/09/21 10:54:37;;;;;;;5.17;3.97;;;;;;;19.55;39.25;100414.63;5036762;28;20591;-85
2021/09/21 10:57:12;;;;;;;4.17;3.77;;;;;;;19.02;39.64;100414.66;5036564;28;20308;-90
2021/09/21 10:59:41;;;;;;;6.23;4.07;;;;;;;18.38;41.57;100404.38;5036990;28;20257;-87
2021/09/21 11:02:09;;;;;;;5.57;4.10;;;;;;;19.01;42.44;100421.16;5039697;28;20291;-84
2021/09/21 11:04:46;;;;;;;5.07;3.93;;;;;;;19.22;40.80;100409.44;5040571;28;20222;-93
2021/09/21 11:07:14;;;;;;;4.17;3.77;;;;;;;19.79;40.25;100417.81;5056986;28;20640;-92
2021/09/21 11:09:42;;;;;;;4.20;3.80;;;;;;;20.30;38.97;100412.69;5039422;28;20535;-89
2021/09/21 11:12:10;;;;;;;5.67;3.90;;;;;;;19.04;41.09;100404.34;5039179;28;20229;-85
2021/09/21 11:14:42;;;;;;;4.80;4.40;;;;;;;19.36;40.32;100403.31;5039419;28;20229;-87
2021/09/21 11:17:10;;;;;;;6.00;4.10;;;;;;;20.14;40.05;100406.38;5039769;28;20233;-88
2021/09/21 11:19:38;;;;;;;6.37;3.87;;;;;;;19.30;41.12;100412.50;5039513;28;20242;-86
2021/09/21 11:22:07;;;;;;;3.40;3.10;;;;;;;19.67;37.26;100404.44;5053939;28;20232;-85
2021/09/21 11:24:36;;;;;;;3.60;3.20;;;;;;;19.79;38.67;100402.31;5055821;28;20260;-88
2021/09/21 11:27:04;;;;;;;6.23;3.93;;;;;;;19.58;39.69;100403.28;5055827;28;20249;-83
2021/09/21 11:29:34;;;;;;;5.70;3.70;;;;;;;19.86;39.38;100413.00;5056930;28;20659;-84
2021/09/21 11:32:02;;;;;;;5.20;4.10;;;;;;;20.52;38.11;100402.50;5055186;28;20287;-82
2021/09/21 11:34:29;;;;;;;3.80;3.20;;;;;;;20.22;37.43;100392.25;5039476;28;20261;-88
2021/09/21 11:37:02;;;;;;;3.60;3.30;;;;;;;20.51;37.05;100406.31;5039616;28;20287;-90
2021/09/21 11:39:30;;;;;;;3.40;3.10;;;;;;;20.43;36.76;100401.38;5040112;28;20280;-86
2021/09/21 11:41:57;;;;;;;3.90;3.60;;;;;;;19.35;39.63;100396.25;5055894;28;20230;-85
2021/09/21 11:44:24;;;;;;;5.10;3.73;;;;;;;18.95;40.97;100395.84;5061540;28;20627;-91
2021/09/21 11:46:58;;;;;;;6.53;3.37;;;;;;;18.82;41.76;100390.84;5059490;28;20228;-92
2021/09/21 11:49:26;;;;;;;4.83;3.77;;;;;;;19.26;40.38;100391.56;5076268;28;20242;-87
2021/09/21 11:51:53;;;;;;;3.90;3.47;;;;;;;19.05;40.37;100392.41;5074885;28;20316;-88
2021/09/21 11:54:20;;;;;;;4.10;3.10;;;;;;;19.24;39.83;100380.94;5057873;28;20240;-91
2021/09/21 11:56:47;;;;;;;6.27;3.33;;;;;;;19.39;37.76;100374.00;5064965;28;20668;-89
2021/09/21 11:59:16;;;;;;;3.17;2.87;;;;;;;19.12;39.17;100380.28;5074086;28;20245;-92
2021/09/21 12:01:51;;;;;;;3.77;3.20;;;;;;;19.51;38.44;100382.81;5059538;28;20583;-90
2021/09/21 12:04:18;;;;;;;3.40;2.97;;;;;;;19.38;37.98;100386.75;5058781;28;20703;-88
2021/09/21 12:06:45;;;;;;;3.50;3.00;;;;;;;19.85;37.06;100378.72;5059553;28;20231;-92
2021/09/21 12:09:12;;;;;;;2.90;2.70;;;;;;;19.36;37.70;100378.06;5055623;28;20312;-90
2021/09/21 12:11:44;;;;;;;3.53;2.87;;;;;;;19.75;37.27;100384.09;5037568;28;20284;-92
2021/09/21 12:14:11;;;;;;;3.73;2.93;;;;;;;19.66;36.37;100382.94;5055099;28;20233;-90
2021/09/21 12:16:38;;;;;;;2.70;2.50;;;;;;;20.00;37.30;100383.44;5055375;28;20230;-86
2021/09/21 12:19:15;;;;;;;4.03;2.60;;;;;;;19.46;36.55;100374.59;5039369;28;20592;-91
2021/09/21 12:21:44;;;;;;;3.00;2.70;;;;;;;19.74;36.28;100375.09;5038457;28;20625;-91
2021/09/21 12:24:11;;;;;;;3.70;2.80;;;;;;;19.84;36.55;100376.25;5054958;28;20312;-88
2021/09/21 12:26:38;;;;;;;3.47;2.77;;;;;;;20.58;35.68;100357.84;5038798;28;20217;-89
2021/09/21 12:29:08;;;;;;;3.60;2.87;;;;;;;21.02;34.67;100361.78;5055049;28;20240;-89
2021/09/21 12:31:36;;;;;;;5.43;3.10;;;;;;;20.29;35.26;100362.09;5071087;28;20667;-89
2021/09/21 12:34:11;;;;;;;5.53;3.30;;;;;;;20.77;34.83;100355.47;5038134;28;20280;-84
2021/09/21 12:36:48;;;;;;;6.50;2.87;;;;;;;20.78;34.41;100366.09;5055163;28;20248;-86
2021/09/21 12:39:17;;;;;;;5.13;3.33;;;;;;;20.22;35.11;100365.88;5038292;28;20225;-82
2021/09/21 12:41:47;;;;;;;3.40;3.10;;;;;;;19.79;35.69;100360.72;5037665;28;20349;-91
2021/09/21 12:44:16;;;;;;;3.07;1.90;;;;;;;19.51;32.08;100359.16;5054058;28;20254;-89
2021/09/21 12:46:45;;;;;;;1.80;1.70;;;;;;;19.60;31.37;100346.72;5038197;28;20252;-87
2021/09/21 12:49:17;;;;;;;1.90;1.80;;;;;;;19.84;31.47;100349.88;5054673;28;20249;-90
2021/09/21 12:51:49;;;;;;;2.20;2.00;;;;;;;19.87;31.89;100349.38;5061967;28;20328;-92
2021/09/21 12:54:18;;;;;;;2.10;1.90;;;;;;;20.21;31.43;100355.25;5061855;28;20229;-88
2021/09/21 12:56:47;;;;;;;2.20;1.80;;;;;;;20.10;31.43;100345.41;5038297;28;20222;-85
2021/09/21 12:59:15;;;;;;;2.33;2.13;;;;;;;20.17;31.40;100354.13;5053596;28;20231;-84
2021/09/21 13:01:44;;;;;;;2.00;1.90;;;;;;;20.41;31.43;100340.94;5055937;28;20670;-88
2021/09/21 13:04:31;;;;;;;2.43;2.23;;;;;;;20.07;31.66;100351.34;5060460;28;20221;-86
2021/09/21 13:06:58;;;;;;;2.47;2.27;;;;;;;20.26;31.58;100338.94;5074579;28;20312;-88
2021/09/21 13:09:24;;;;;;;2.63;2.23;;;;;;;20.69;30.77;100353.28;5057729;28;20317;-88
2021/09/21 13:11:56;;;;;;;2.43;2.23;;;;;;;20.77;30.60;100350.00;5058676;28;20229;-85
2021/09/21 13:14:22;;;;;;;3.00;2.17;;;;;;;21.04;30.43;100334.28;5074397;28;20244;-90
2021/09/21 13:16:49;;;;;;;2.30;2.10;;;;;;;21.16;30.88;100347.66;5074403;28;20319;-85
2021/09/21 13:19:16;;;;;;;2.10;2.00;;;;;;;20.94;30.77;100345.16;5074487;28;20228;-91
2021/09/21 13:21:42;;;;;;;3.10;2.40;;;;;;;21.05;31.61;100344.88;5074335;28;20231;-88
2021/09/21 13:24:09;;;;;;;2.57;2.30;;;;;;;20.98;30.88;100352.53;5073437;28;20633;-83
2021/09/21 13:26:36;;;;;;;5.10;2.20;;;;;;;20.52;32.11;100348.88;5074100;28;20224;-90
2021/09/21 13:29:03;;;;;;;2.80;2.53;;;;;;;20.67;32.15;100358.19;5057402;28;20324;-89
2021/09/21 13:31:29;;;;;;;2.70;2.50;;;;;;;20.46;31.70;100349.13;5075371;28;20253;-90
2021/09/21 13:33:56;;;;;;;3.17;2.40;;;;;;;20.36;32.55;100351.78;5057588;28;20243;-89
2021/09/21 13:36:23;;;;;;;2.70;2.50;;;;;;;20.56;33.11;100351.88;5057137;28;20318;-81
2021/09/21 13:38:50;;;;;;;3.80;2.30;;;;;;;20.43;32.75;100364.09;5057823;28;20255;-86
2021/09/21 13:41:17;;;;;;;2.50;2.10;;;;;;;20.19;33.69;100368.31;5040916;28;20252;-91
2021/09/21 13:43:45;;;;;;;7.03;3.27;;;;;;;20.09;36.65;100371.78;5054664;28;20352;-81
2021/09/21 13:46:11;;;;;;;3.33;3.00;;;;;;;20.45;37.15;100374.69;5053551;28;20317;-91
2021/09/21 13:48:38;;;;;;;4.63;2.60;;;;;;;20.37;35.24;100367.03;5037724;28;20232;-90
2021/09/21 13:51:05;;;;;;;6.13;2.37;;;;;;;20.27;34.17;100365.06;5054207;28;20665;-89
2021/09/21 13:53:32;;;;;;;3.37;2.63;;;;;;;20.00;34.33;100378.81;5037304;28;20305;-90
2021/09/21 13:55:59;;;;;;;2.70;2.47;;;;;;;20.14;34.87;100379.97;5037484;28;20613;-90
2021/09/21 13:58:26;;;;;;;2.60;2.40;;;;;;;19.99;35.20;100376.34;5037227;28;20260;-88
2021/09/21 14:00:52;;;;;;;2.83;2.50;;;;;;;19.77;34.98;100366.44;5054014;28;20309;-90
2021/09/21 14:03:19;;;;;;;3.20;2.50;;;;;;;19.51;35.82;100352.91;5021099;28;20231;-90
2021/09/21 14:05:46;;;;;;;2.93;2.60;;;;;;;19.15;36.40;100371.63;5053935;28;20524;-87
2021/09/21 14:08:13;;;;;;;3.33;2.73;;;;;;;19.07;36.68;100382.13;5037044;28;20230;-90
2021/09/21 14:10:40;;;;;;;4.40;3.10;;;;;;;19.24;36.99;100386.38;5053605;28;20589;-91
2021/09/21 14:13:06;;;;;;;3.77;2.77;;;;;;;19.12;36.70;100369.44;5037368;28;20320;-89
2021/09/21 14:15:34;;;;;;;4.07;2.87;;;;;;;19.02;37.68;100380.19;5037324;28;20309;-91
2021/09/21 14:18:02;;;;;;;4.13;2.90;;;;;;;19.27;37.64;100374.97;5036895;28;20287;-90